Impacts TAF Board INFO
FOR SITUATIONAL AWARENESS. NOT TO BE USED FOR FLIGHT PLANNING PURPOSES.
IDs:

KDEN - Denver Intl, CO, US

Issued at 1732 UTC 24 Mar 2017
Updated at 2003 UTC 24 Mar 2017
Potential Impact None Slight Moderate High
Time1953Z 24/21Z 24/22Z 24/23Z 25/00Z 25/01Z 25/02Z 25/03Z 25/04Z 25/05Z 25/06Z 25/07Z 25/08Z 25/09Z
Type OBS PRVL PRVL PRVL PRVL PRVL PRVL PRVL PRVL PRVL PRVL PRVL PRVL PRVL
VIS 10 >6 >6 >6 >6 >6 >6 >6 >6 >6 >6 >6 >6 >6
CIG 55 60 60 60 -- -- -- -- -- -- -- -- -- --
Cover OVC BKN BKN BKN SCT SCT FEW FEW FEW FEW FEW FEW FEW FEW
FltCat VFR VFR VFR VFR VFR VFR VFR VFR VFR VFR VFR VFR VFR VFR
WX -- VCSH VCSH VCSH -- -- -- -- -- -- -- -- -- --
WDir 30 30 30 30 90 90 170 170 170 200 200 200 200 200
WSpd 17 12 12 12 9 9 7 7 7 8 8 8 8 8
WGst -- -- -- -- -- -- -- -- -- -- -- -- -- --

Raw TAF
KDEN 241732Z 2418/2524 01015G25KT P6SM VCSH SCT040 BKN050 BKN090
  TEMPO 2418/2420 -SHRA BKN035
  FM242100 03012KT P6SM VCSH SCT040 BKN060
  FM250000 09009KT P6SM SCT060 SCT090
  FM250200 17007KT P6SM FEW100
  FM250500 20008KT P6SM FEW250
  FM251500 15008KT P6SM SCT250


Raw METAR
KDEN 241953Z 03017KT 10SM FEW036 SCT043 OVC055 08/01 A3012 RMK AO2 SLP189 T00830006
KDEN 241853Z 02016KT 10SM SCT044 BKN055 07/01 A3012 RMK AO2 PK WND 01029/1823 RAE15 SLP187 P0000 T00720011
KDEN 241753Z 02018KT 10SM -RA SCT042 OVC050 06/01 A3012 RMK AO2 PK WND 35031/1654 RAB44 SLP185 P0000 60006 T00610011 10067 20017 51023

METAR Board
Radar Display
Forecast Discussion

FOR SITUATIONAL AWARENESS. NOT TO BE USED FOR FLIGHT PLANNING PURPOSES.

Page loaded:  20:03 UTC  |   01:03 PM Pacific  |   02:03 PM Mountain  |   03:03 PM Central  |   04:03 PM Eastern

 

ADVISORIES

FORECASTS

FORECASTS

OBSERVATIONS

USER TOOLS

ABOUT US